sensor_id;sensor_type;location;lat;lon;timestamp;pressure;altitude;pressure_sealevel;temperature;humidity
62976;BME280;49071;0.000;0.000;2023-04-29T05:54:29;100296.78;;;17.04;43.12
62976;BME280;49071;0.000;0.000;2023-04-29T05:57:29;100306.81;;;17.13;43.20
62976;BME280;49071;0.000;0.000;2023-04-29T06:00:29;100305.53;;;17.21;42.71
62976;BME280;49071;0.000;0.000;2023-04-29T06:03:30;100300.34;;;17.37;42.71
62976;BME280;49071;0.000;0.000;2023-04-29T06:06:31;100310.81;;;17.55;42.46
62976;BME280;49071;0.000;0.000;2023-04-29T06:09:31;100309.13;;;17.71;42.16
62976;BME280;49071;0.000;0.000;2023-04-29T06:12:32;100313.38;;;17.91;41.56
62976;BME280;49071;0.000;0.000;2023-04-29T06:15:32;100312.31;;;18.11;41.41
62976;BME280;49071;0.000;0.000;2023-04-29T06:18:32;100315.00;;;18.27;41.17
62976;BME280;49071;0.000;0.000;2023-04-29T06:21:32;100309.56;;;18.46;41.23
62976;BME280;49071;0.000;0.000;2023-04-29T06:24:33;100311.88;;;18.68;40.78
62976;BME280;49071;0.000;0.000;2023-04-29T06:27:33;100315.63;;;18.79;40.69
62976;BME280;49071;0.000;0.000;2023-04-29T06:30:33;100315.28;;;18.85;40.68
62976;BME280;49071;0.000;0.000;2023-04-29T06:33:33;100326.66;;;18.86;40.70
62976;BME280;49071;0.000;0.000;2023-04-29T06:36:34;100327.47;;;18.86;40.85
62976;BME280;49071;0.000;0.000;2023-04-29T06:39:34;100331.91;;;18.86;40.80
62976;BME280;49071;0.000;0.000;2023-04-29T06:42:34;100330.13;;;18.86;40.98
62976;BME280;49071;0.000;0.000;2023-04-29T06:45:35;100337.25;;;18.84;41.11
62976;BME280;49071;0.000;0.000;2023-04-29T06:48:35;100332.00;;;18.84;40.83
62976;BME280;49071;0.000;0.000;2023-04-29T06:51:36;100331.22;;;18.82;41.02
62976;BME280;49071;0.000;0.000;2023-04-29T06:54:36;100331.22;;;18.82;41.09
62976;BME280;49071;0.000;0.000;2023-04-29T06:57:37;100326.06;;;18.81;41.21
62976;BME280;49071;0.000;0.000;2023-04-29T07:00:37;100330.66;;;18.77;41.01
62976;BME280;49071;0.000;0.000;2023-04-29T07:03:37;100329.03;;;18.75;41.40
62976;BME280;49071;0.000;0.000;2023-04-29T07:06:37;100339.00;;;18.68;41.56
62976;BME280;49071;0.000;0.000;2023-04-29T07:09:38;100330.53;;;18.63;41.81
62976;BME280;49071;0.000;0.000;2023-04-29T07:12:38;100334.25;;;18.59;42.02
62976;BME280;49071;0.000;0.000;2023-04-29T07:15:38;100334.59;;;18.53;41.78
62976;BME280;49071;0.000;0.000;2023-04-29T07:18:38;100336.44;;;18.51;41.96
62976;BME280;49071;0.000;0.000;2023-04-29T07:21:39;100337.97;;;18.55;41.94
62976;BME280;49071;0.000;0.000;2023-04-29T07:24:39;100343.84;;;18.60;41.54
62976;BME280;49071;0.000;0.000;2023-04-29T07:27:39;100343.31;;;18.69;41.86
62976;BME280;49071;0.000;0.000;2023-04-29T07:30:39;100347.16;;;18.79;41.67
62976;BME280;49071;0.000;0.000;2023-04-29T07:33:39;100340.56;;;18.88;41.20
62976;BME280;49071;0.000;0.000;2023-04-29T07:36:39;100340.63;;;19.02;41.01
62976;BME280;49071;0.000;0.000;2023-04-29T07:39:40;100349.69;;;19.13;40.85
62976;BME280;49071;0.000;0.000;2023-04-29T07:42:41;100349.06;;;19.23;40.63
62976;BME280;49071;0.000;0.000;2023-04-29T07:45:41;100354.56;;;19.34;40.42
62976;BME280;49071;0.000;0.000;2023-04-29T07:48:42;100354.56;;;19.34;40.75
62976;BME280;49071;0.000;0.000;2023-04-29T07:51:42;100361.53;;;19.35;40.60
62976;BME280;49071;0.000;0.000;2023-04-29T07:54:42;100360.69;;;19.35;40.79
62976;BME280;49071;0.000;0.000;2023-04-29T07:57:43;100356.59;;;19.29;40.44
62976;BME280;49071;0.000;0.000;2023-04-29T08:00:43;100362.81;;;19.28;40.58
62976;BME280;49071;0.000;0.000;2023-04-29T08:03:43;100359.59;;;19.23;40.65
62976;BME280;49071;0.000;0.000;2023-04-29T08:06:44;100367.63;;;19.20;40.83
62976;BME280;49071;0.000;0.000;2023-04-29T08:09:44;100371.22;;;19.19;40.37
62976;BME280;49071;0.000;0.000;2023-04-29T08:12:45;100373.94;;;19.18;40.58
62976;BME280;49071;0.000;0.000;2023-04-29T08:15:45;100378.59;;;19.13;40.77
62976;BME280;49071;0.000;0.000;2023-04-29T08:18:45;100375.28;;;19.09;40.81
62976;BME280;49071;0.000;0.000;2023-04-29T08:21:46;100372.94;;;19.04;40.81
62976;BME280;49071;0.000;0.000;2023-04-29T08:24:46;100382.78;;;19.01;40.84
62976;BME280;49071;0.000;0.000;2023-04-29T08:27:47;100388.19;;;18.98;40.83
62976;BME280;49071;0.000;0.000;2023-04-29T08:30:47;100381.50;;;18.92;40.95
62976;BME280;49071;0.000;0.000;2023-04-29T08:33:48;100381.75;;;18.87;41.15
62976;BME280;49071;0.000;0.000;2023-04-29T08:36:48;100390.75;;;18.83;40.99
62976;BME280;49071;0.000;0.000;2023-04-29T08:39:48;100390.97;;;18.79;41.27
62976;BME280;49071;0.000;0.000;2023-04-29T08:42:48;100382.53;;;18.74;41.55
62976;BME280;49071;0.000;0.000;2023-04-29T08:45:49;100401.03;;;18.71;41.60
62976;BME280;49071;0.000;0.000;2023-04-29T08:48:49;100395.94;;;18.68;41.48
62976;BME280;49071;0.000;0.000;2023-04-29T08:51:50;100396.13;;;18.64;41.47
62976;BME280;49071;0.000;0.000;2023-04-29T08:54:50;100391.03;;;18.61;41.74
62976;BME280;49071;0.000;0.000;2023-04-29T08:57:51;100399.84;;;18.60;41.68
62976;BME280;49071;0.000;0.000;2023-04-29T09:00:53;100402.38;;;18.62;41.39
62976;BME280;49071;0.000;0.000;2023-04-29T09:04:05;100403.84;;;18.68;41.55
62976;BME280;49071;0.000;0.000;2023-04-29T09:07:07;100418.38;;;18.75;41.50
62976;BME280;49071;0.000;0.000;2023-04-29T09:10:09;100410.00;;;18.84;41.15
62976;BME280;49071;0.000;0.000;2023-04-29T09:13:21;100410.16;;;18.97;41.01
62976;BME280;49071;0.000;0.000;2023-04-29T09:16:21;100408.53;;;19.10;40.95
62976;BME280;49071;0.000;0.000;2023-04-29T09:19:34;100417.53;;;19.22;40.74
62976;BME280;49071;0.000;0.000;2023-04-29T09:22:48;100418.44;;;19.37;40.55
62976;BME280;49071;0.000;0.000;2023-04-29T09:25:57;100416.97;;;19.47;40.14
62976;BME280;49071;0.000;0.000;2023-04-29T09:29:10;100428.28;;;19.49;40.29
62976;BME280;49071;0.000;0.000;2023-04-29T09:32:17;100422.91;;;19.50;40.44
62976;BME280;49071;0.000;0.000;2023-04-29T09:35:21;100427.31;;;19.50;40.56
62976;BME280;49071;0.000;0.000;2023-04-29T09:38:22;100435.31;;;19.48;40.56
62976;BME280;49071;0.000;0.000;2023-04-29T09:41:22;100434.66;;;19.45;40.71
62976;BME280;49071;0.000;0.000;2023-04-29T09:44:23;100448.91;;;19.41;40.53
62976;BME280;49071;0.000;0.000;2023-04-29T09:47:28;100444.72;;;19.37;40.47
62976;BME280;49071;0.000;0.000;2023-04-29T09:50:29;100447.53;;;19.33;40.78
62976;BME280;49071;0.000;0.000;2023-04-29T09:53:30;100449.59;;;19.28;40.61
62976;BME280;49071;0.000;0.000;2023-04-29T09:56:38;100455.13;;;19.24;40.84
62976;BME280;49071;0.000;0.000;2023-04-29T09:59:47;100457.13;;;19.19;40.90
62976;BME280;49071;0.000;0.000;2023-04-29T10:02:47;100463.50;;;19.15;41.18
62976;BME280;49071;0.000;0.000;2023-04-29T10:05:48;100457.56;;;19.11;41.06
62976;BME280;49071;0.000;0.000;2023-04-29T10:08:49;100462.16;;;19.07;40.95
62976;BME280;49071;0.000;0.000;2023-04-29T10:11:52;100461.38;;;19.05;40.99
62976;BME280;49071;0.000;0.000;2023-04-29T10:18:19;100466.13;;;18.99;41.24
62976;BME280;49071;0.000;0.000;2023-04-29T10:21:20;100471.63;;;18.94;41.12
62976;BME280;49071;0.000;0.000;2023-04-29T10:24:23;100468.31;;;18.91;41.50
62976;BME280;49071;0.000;0.000;2023-04-29T10:27:24;100474.66;;;18.86;41.36
62976;BME280;49071;0.000;0.000;2023-04-29T10:30:25;100473.06;;;18.84;41.30
62976;BME280;49071;0.000;0.000;2023-04-29T10:33:26;100481.16;;;18.79;41.29
62976;BME280;49071;0.000;0.000;2023-04-29T10:36:29;100494.56;;;18.75;41.54
62976;BME280;49071;0.000;0.000;2023-04-29T10:39:52;100491.22;;;18.71;41.48
62976;BME280;49071;0.000;0.000;2023-04-29T10:42:56;100496.63;;;18.68;41.84
62976;BME280;49071;0.000;0.000;2023-04-29T10:49:15;100513.53;;;18.62;41.97
62976;BME280;49071;0.000;0.000;2023-04-29T10:52:15;100514.59;;;18.60;41.82
62976;BME280;49071;0.000;0.000;2023-04-29T10:55:16;100519.91;;;18.58;42.02
62976;BME280;49071;0.000;0.000;2023-04-29T11:01:56;100527.09;;;18.72;41.66
62976;BME280;49071;0.000;0.000;2023-04-29T11:05:05;100530.09;;;18.82;41.56
62976;BME280;49071;0.000;0.000;2023-04-29T11:11:09;100539.91;;;19.11;41.21
62976;BME280;49071;0.000;0.000;2023-04-29T11:14:10;100548.06;;;19.23;40.95
62976;BME280;49071;0.000;0.000;2023-04-29T11:17:11;100548.16;;;19.37;41.06
62976;BME280;49071;0.000;0.000;2023-04-29T11:20:12;100555.72;;;19.43;40.54
62976;BME280;49071;0.000;0.000;2023-04-29T11:23:12;100558.09;;;19.48;40.65
62976;BME280;49071;0.000;0.000;2023-04-29T11:26:19;100564.13;;;19.50;40.64
62976;BME280;49071;0.000;0.000;2023-04-29T11:29:20;100569.53;;;19.47;40.86
62976;BME280;49071;0.000;0.000;2023-04-29T11:32:21;100574.81;;;19.47;40.83
62976;BME280;49071;0.000;0.000;2023-04-29T11:35:22;100586.44;;;19.43;40.78
62976;BME280;49071;0.000;0.000;2023-04-29T11:38:27;100585.69;;;19.41;40.74
62976;BME280;49071;0.000;0.000;2023-04-29T11:41:27;100594.66;;;19.37;40.76
62976;BME280;49071;0.000;0.000;2023-04-29T11:44:28;100600.16;;;19.32;40.76
62976;BME280;49071;0.000;0.000;2023-04-29T11:47:28;100596.84;;;19.28;40.83
62976;BME280;49071;0.000;0.000;2023-04-29T11:50:29;100607.53;;;19.25;40.77
62976;BME280;49071;0.000;0.000;2023-04-29T11:53:31;100616.44;;;19.23;40.94
62976;BME280;49071;0.000;0.000;2023-04-29T11:56:31;100621.00;;;19.19;40.95
62976;BME280;49071;0.000;0.000;2023-04-29T11:59:32;100622.09;;;19.15;41.15
62976;BME280;49071;0.000;0.000;2023-04-29T12:02:32;100619.72;;;19.10;41.36
62976;BME280;49071;0.000;0.000;2023-04-29T12:05:33;100626.03;;;19.06;41.38
62976;BME280;49071;0.000;0.000;2023-04-29T12:08:33;100635.88;;;19.03;41.41
62976;BME280;49071;0.000;0.000;2023-04-29T12:11:34;100640.53;;;18.98;41.58
62976;BME280;49071;0.000;0.000;2023-04-29T12:14:35;100650.34;;;18.94;41.30
62976;BME280;49071;0.000;0.000;2023-04-29T12:17:36;100647.94;;;18.90;41.48
62976;BME280;49071;0.000;0.000;2023-04-29T12:20:37;100648.97;;;18.87;41.62
62976;BME280;49071;0.000;0.000;2023-04-29T12:23:38;100655.28;;;18.83;41.72
62976;BME280;49071;0.000;0.000;2023-04-29T12:26:40;100658.09;;;18.80;41.69
62976;BME280;49071;0.000;0.000;2023-04-29T12:29:40;100659.94;;;18.78;41.70
62976;BME280;49071;0.000;0.000;2023-04-29T12:32:40;100661.03;;;18.74;41.79
62976;BME280;49071;0.000;0.000;2023-04-29T12:35:41;100662.88;;;18.72;41.72
62976;BME280;49071;0.000;0.000;2023-04-29T12:38:41;100677.91;;;18.68;41.78
62976;BME280;49071;0.000;0.000;2023-04-29T12:41:41;100670.16;;;18.65;42.06
62976;BME280;49071;0.000;0.000;2023-04-29T12:44:45;100673.78;;;18.62;42.13
62976;BME280;49071;0.000;0.000;2023-04-29T12:47:49;100669.56;;;18.60;41.81
62976;BME280;49071;0.000;0.000;2023-04-29T12:50:49;100669.63;;;18.58;42.00
62976;BME280;49071;0.000;0.000;2023-04-29T12:53:52;100668.63;;;18.61;41.87
62976;BME280;49071;0.000;0.000;2023-04-29T12:56:52;100674.44;;;18.68;41.79
62976;BME280;49071;0.000;0.000;2023-04-29T12:59:53;100675.84;;;18.75;41.77
62976;BME280;49071;0.000;0.000;2023-04-29T13:02:53;100671.00;;;18.84;41.45
62976;BME280;49071;0.000;0.000;2023-04-29T13:05:54;100675.63;;;18.97;41.57
62976;BME280;49071;0.000;0.000;2023-04-29T13:08:54;100682.72;;;19.12;41.14
62976;BME280;49071;0.000;0.000;2023-04-29T13:11:54;100675.13;;;19.23;41.33
62976;BME280;49071;0.000;0.000;2023-04-29T13:14:55;100671.69;;;19.39;40.91
62976;BME280;49071;0.000;0.000;2023-04-29T13:17:55;100676.31;;;19.51;40.91
62976;BME280;49071;0.000;0.000;2023-04-29T13:20:57;100679.53;;;19.56;40.79
62976;BME280;49071;0.000;0.000;2023-04-29T13:23:57;100675.06;;;19.58;40.76
62976;BME280;49071;0.000;0.000;2023-04-29T13:26:57;100678.53;;;19.58;40.66
62976;BME280;49071;0.000;0.000;2023-04-29T13:29:57;100682.94;;;19.58;40.70
62976;BME280;49071;0.000;0.000;2023-04-29T13:32:58;100685.59;;;19.58;40.99
62976;BME280;49071;0.000;0.000;2023-04-29T13:35:58;100678.59;;;19.57;40.53
62976;BME280;49071;0.000;0.000;2023-04-29T13:38:58;100680.50;;;19.55;40.79
62976;BME280;49071;0.000;0.000;2023-04-29T13:41:58;100691.91;;;19.54;41.02
62976;BME280;49071;0.000;0.000;2023-04-29T13:44:58;100688.59;;;19.50;40.79
62976;BME280;49071;0.000;0.000;2023-04-29T13:47:58;100687.91;;;19.47;40.86
62976;BME280;49071;0.000;0.000;2023-04-29T13:50:59;100684.59;;;19.43;40.92
62976;BME280;49071;0.000;0.000;2023-04-29T13:53:59;100686.63;;;19.38;41.04
62976;BME280;49071;0.000;0.000;2023-04-29T13:57:00;100689.59;;;19.32;41.24
62976;BME280;49071;0.000;0.000;2023-04-29T14:00:03;100702.03;;;19.28;41.12
62976;BME280;49071;0.000;0.000;2023-04-29T14:03:03;100702.28;;;19.24;41.52
62976;BME280;49071;0.000;0.000;2023-04-29T14:06:04;100700.66;;;19.21;41.24
62976;BME280;49071;0.000;0.000;2023-04-29T14:09:05;100703.50;;;19.17;41.29
62976;BME280;49071;0.000;0.000;2023-04-29T14:12:05;100705.53;;;19.11;41.35
62976;BME280;49071;0.000;0.000;2023-04-29T14:15:06;100711.94;;;19.06;41.46
62976;BME280;49071;0.000;0.000;2023-04-29T14:18:06;100723.56;;;19.02;41.75
62976;BME280;49071;0.000;0.000;2023-04-29T14:21:08;100722.00;;;18.98;41.99
62976;BME280;49071;0.000;0.000;2023-04-29T14:24:09;100724.78;;;18.95;41.92
62976;BME280;49071;0.000;0.000;2023-04-29T14:27:10;100735.47;;;18.92;41.80
62976;BME280;49071;0.000;0.000;2023-04-29T14:30:10;100733.06;;;18.87;42.02
62976;BME280;49071;0.000;0.000;2023-04-29T14:33:10;100741.00;;;18.85;42.06
62976;BME280;49071;0.000;0.000;2023-04-29T14:36:10;100738.53;;;18.82;41.93
62976;BME280;49071;0.000;0.000;2023-04-29T14:39:11;100740.41;;;18.80;41.93
62976;BME280;49071;0.000;0.000;2023-04-29T14:42:11;100745.72;;;18.79;42.07
62976;BME280;49071;0.000;0.000;2023-04-29T14:45:13;100747.59;;;18.77;42.03
62976;BME280;49071;0.000;0.000;2023-04-29T14:48:14;100746.81;;;18.75;41.98
62976;BME280;49071;0.000;0.000;2023-04-29T14:51:15;100745.97;;;18.74;42.15
62976;BME280;49071;0.000;0.000;2023-04-29T14:54:15;100750.41;;;18.72;42.04
62976;BME280;49071;0.000;0.000;2023-04-29T14:57:15;100750.53;;;18.69;42.06
62976;BME280;49071;0.000;0.000;2023-04-29T15:00:15;100758.56;;;18.66;42.22
62976;BME280;49071;0.000;0.000;2023-04-29T15:03:16;100763.06;;;18.64;42.41
62976;BME280;49071;0.000;0.000;2023-04-29T15:06:16;100769.88;;;18.68;42.35
62976;BME280;49071;0.000;0.000;2023-04-29T15:09:17;100767.81;;;18.75;42.42
62976;BME280;49071;0.000;0.000;2023-04-29T15:12:17;100772.56;;;18.85;41.88
62976;BME280;49071;0.000;0.000;2023-04-29T15:15:19;100772.00;;;18.96;41.99
62976;BME280;49071;0.000;0.000;2023-04-29T15:18:19;100765.16;;;19.11;41.81
62976;BME280;49071;0.000;0.000;2023-04-29T15:21:22;100778.38;;;19.27;41.24
62976;BME280;49071;0.000;0.000;2023-04-29T15:24:22;100782.72;;;19.45;41.13
62976;BME280;49071;0.000;0.000;2023-04-29T15:27:22;100778.97;;;19.49;41.05
62976;BME280;49071;0.000;0.000;2023-04-29T15:30:22;100786.72;;;19.52;41.33
62976;BME280;49071;0.000;0.000;2023-04-29T15:33:22;100785.78;;;19.53;41.29
62976;BME280;49071;0.000;0.000;2023-04-29T15:36:29;100792.00;;;19.52;41.02
62976;BME280;49071;0.000;0.000;2023-04-29T15:39:30;100798.09;;;19.53;41.03
62976;BME280;49071;0.000;0.000;2023-04-29T15:42:30;100807.94;;;19.49;41.23
62976;BME280;49071;0.000;0.000;2023-04-29T15:45:31;100804.53;;;19.47;41.24
62976;BME280;49071;0.000;0.000;2023-04-29T15:48:31;100814.28;;;19.45;41.16
62976;BME280;49071;0.000;0.000;2023-04-29T15:51:31;100811.78;;;19.42;41.09
62976;BME280;49071;0.000;0.000;2023-04-29T15:54:31;100808.47;;;19.39;41.10
62976;BME280;49071;0.000;0.000;2023-04-29T15:57:32;100810.47;;;19.33;41.41
62976;BME280;49071;0.000;0.000;2023-04-29T16:00:33;100815.91;;;19.30;41.61
62976;BME280;49071;0.000;0.000;2023-04-29T16:03:33;100823.06;;;19.27;41.44
62976;BME280;49071;0.000;0.000;2023-04-29T16:06:33;100825.88;;;19.24;41.81
62976;BME280;49071;0.000;0.000;2023-04-29T16:09:34;100827.78;;;19.20;41.67
62976;BME280;49071;0.000;0.000;2023-04-29T16:12:34;100818.34;;;19.16;41.75
62976;BME280;49071;0.000;0.000;2023-04-29T16:15:34;100822.84;;;19.14;41.62
62976;BME280;49071;0.000;0.000;2023-04-29T16:18:35;100833.59;;;19.09;41.71
62976;BME280;49071;0.000;0.000;2023-04-29T16:21:35;100833.72;;;19.06;41.69
62976;BME280;49071;0.000;0.000;2023-04-29T16:24:35;100838.28;;;19.03;42.07
62976;BME280;49071;0.000;0.000;2023-04-29T16:27:36;100841.06;;;19.00;42.04
62976;BME280;49071;0.000;0.000;2023-04-29T16:30:36;100848.25;;;18.96;41.96
62976;BME280;49071;0.000;0.000;2023-04-29T16:33:36;100855.44;;;18.93;42.28
62976;BME280;49071;0.000;0.000;2023-04-29T16:36:36;100853.88;;;18.88;42.18
62976;BME280;49071;0.000;0.000;2023-04-29T16:39:37;100865.31;;;18.87;42.06
62976;BME280;49071;0.000;0.000;2023-04-29T16:42:37;100874.28;;;18.83;42.05
62976;BME280;49071;0.000;0.000;2023-04-29T16:45:37;100872.66;;;18.81;42.24
62976;BME280;49071;0.000;0.000;2023-04-29T16:48:37;100879.75;;;18.79;42.59
62976;BME280;49071;0.000;0.000;2023-04-29T16:51:38;100876.41;;;18.75;42.46
62976;BME280;49071;0.000;0.000;2023-04-29T16:54:38;100881.78;;;18.72;42.46
62976;BME280;49071;0.000;0.000;2023-04-29T16:57:38;100889.72;;;18.71;42.58
62976;BME280;49071;0.000;0.000;2023-04-29T17:00:38;100899.44;;;18.69;42.25
62976;BME280;49071;0.000;0.000;2023-04-29T17:03:38;100896.97;;;18.65;42.38
62976;BME280;49071;0.000;0.000;2023-04-29T17:06:39;100897.06;;;18.64;42.55
62976;BME280;49071;0.000;0.000;2023-04-29T17:09:40;100893.50;;;18.65;42.46
62976;BME280;49071;0.000;0.000;2023-04-29T17:12:40;100891.50;;;18.70;42.43
62976;BME280;49071;0.000;0.000;2023-04-29T17:15:40;100903.47;;;18.77;42.36
62976;BME280;49071;0.000;0.000;2023-04-29T17:18:40;100904.81;;;18.86;41.90
62976;BME280;49071;0.000;0.000;2023-04-29T17:21:41;100907.72;;;18.99;41.90
62976;BME280;49071;0.000;0.000;2023-04-29T17:24:41;100907.13;;;19.11;41.75
62976;BME280;49071;0.000;0.000;2023-04-29T17:27:43;100917.75;;;19.27;41.83
62976;BME280;49071;0.000;0.000;2023-04-29T17:30:46;100907.44;;;19.41;41.58
62976;BME280;49071;0.000;0.000;2023-04-29T17:33:47;100919.56;;;19.44;41.30
62976;BME280;49071;0.000;0.000;2023-04-29T17:36:54;100925.63;;;19.46;41.44
62976;BME280;49071;0.000;0.000;2023-04-29T17:39:54;100929.94;;;19.47;41.33
62976;BME280;49071;0.000;0.000;2023-04-29T17:42:54;100930.09;;;19.44;41.48
62976;BME280;49071;0.000;0.000;2023-04-29T17:45:56;100928.38;;;19.43;41.44
62976;BME280;49071;0.000;0.000;2023-04-29T17:48:56;100931.09;;;19.41;41.58
62976;BME280;49071;0.000;0.000;2023-04-29T17:51:56;100940.84;;;19.39;41.66
62976;BME280;49071;0.000;0.000;2023-04-29T17:54:58;100945.09;;;19.42;41.84
62976;BME280;49071;0.000;0.000;2023-04-29T17:57:59;100948.59;;;19.42;41.43
62976;BME280;49071;0.000;0.000;2023-04-29T18:01:01;100944.16;;;19.43;41.76
62976;BME280;49071;0.000;0.000;2023-04-29T18:04:01;100949.53;;;19.41;41.91
62976;BME280;49071;0.000;0.000;2023-04-29T18:07:02;100952.22;;;19.40;42.07
62976;BME280;49071;0.000;0.000;2023-04-29T18:10:02;100960.19;;;19.38;42.22
62976;BME280;49071;0.000;0.000;2023-04-29T18:13:03;100960.25;;;19.37;42.52
62976;BME280;49071;0.000;0.000;2023-04-29T18:16:04;100958.63;;;19.34;42.38
62976;BME280;49071;0.000;0.000;2023-04-29T18:19:05;100957.00;;;19.31;42.36
62976;BME280;49071;0.000;0.000;2023-04-29T18:22:06;100965.88;;;19.29;42.50
62976;BME280;49071;0.000;0.000;2023-04-29T18:25:06;100971.38;;;19.24;42.63
62976;BME280;49071;0.000;0.000;2023-04-29T18:28:06;100972.41;;;19.20;42.89
62976;BME280;49071;0.000;0.000;2023-04-29T18:31:07;100979.53;;;19.18;42.56
62976;BME280;49071;0.000;0.000;2023-04-29T18:34:08;100978.69;;;19.18;42.71
62976;BME280;49071;0.000;0.000;2023-04-29T18:37:08;100988.38;;;19.17;42.94
62976;BME280;49071;0.000;0.000;2023-04-29T18:40:08;100987.56;;;19.15;43.09
62976;BME280;49071;0.000;0.000;2023-04-29T18:43:09;100992.03;;;19.13;43.33
62976;BME280;49071;0.000;0.000;2023-04-29T18:46:10;100996.44;;;19.13;43.34
62976;BME280;49071;0.000;0.000;2023-04-29T18:49:10;100994.81;;;19.10;43.39
62976;BME280;49071;0.000;0.000;2023-04-29T18:52:15;101002.78;;;19.08;43.27
62976;BME280;49071;0.000;0.000;2023-04-29T18:55:15;101015.06;;;19.08;43.50
62976;BME280;49071;0.000;0.000;2023-04-29T18:58:15;101012.59;;;19.05;43.43
62976;BME280;49071;0.000;0.000;2023-04-29T19:01:15;101016.19;;;19.02;43.79
62976;BME280;49071;0.000;0.000;2023-04-29T19:04:15;101018.06;;;19.00;43.79
62976;BME280;49071;0.000;0.000;2023-04-29T19:07:16;101027.00;;;18.96;43.61
62976;BME280;49071;0.000;0.000;2023-04-29T19:10:16;101032.38;;;18.93;43.64
62976;BME280;49071;0.000;0.000;2023-04-29T19:13:16;101029.94;;;18.90;43.79
62976;BME280;49071;0.000;0.000;2023-04-29T19:16:16;101037.06;;;18.86;44.09
62976;BME280;49071;0.000;0.000;2023-04-29T19:19:16;101044.09;;;18.86;44.13
62976;BME280;49071;0.000;0.000;2023-04-29T19:22:17;101041.59;;;18.83;43.75
62976;BME280;49071;0.000;0.000;2023-04-29T19:25:17;101041.59;;;18.83;44.26
62976;BME280;49071;0.000;0.000;2023-04-29T19:28:17;101041.59;;;18.83;44.33
62976;BME280;49071;0.000;0.000;2023-04-29T19:31:18;101049.56;;;18.81;44.28
62976;BME280;49071;0.000;0.000;2023-04-29T19:34:18;101053.97;;;18.81;44.57
62976;BME280;49071;0.000;0.000;2023-04-29T19:37:18;101059.22;;;18.81;44.64
62976;BME280;49071;0.000;0.000;2023-04-29T19:40:18;101056.66;;;18.79;44.39
62976;BME280;49071;0.000;0.000;2023-04-29T19:43:18;101062.84;;;18.78;44.47
62976;BME280;49071;0.000;0.000;2023-04-29T19:46:19;101057.59;;;18.78;44.77
62976;BME280;49071;0.000;0.000;2023-04-29T19:49:19;101062.94;;;18.77;44.81
62976;BME280;49071;0.000;0.000;2023-04-29T19:52:19;101068.22;;;18.75;44.83
62976;BME280;49071;0.000;0.000;2023-04-29T19:55:20;101069.16;;;18.74;44.66
62976;BME280;49071;0.000;0.000;2023-04-29T19:58:20;101066.53;;;18.74;45.09
62976;BME280;49071;0.000;0.000;2023-04-29T20:01:20;101063.06;;;18.74;44.66
62976;BME280;49071;0.000;0.000;2023-04-29T20:04:20;101074.41;;;18.74;45.06
62976;BME280;49071;0.000;0.000;2023-04-29T20:07:23;101072.72;;;18.73;45.09
62976;BME280;49071;0.000;0.000;2023-04-29T20:10:23;101079.72;;;18.73;45.04
62976;BME280;49071;0.000;0.000;2023-04-29T20:13:23;101078.03;;;18.72;45.20
62976;BME280;49071;0.000;0.000;2023-04-29T20:16:23;101076.41;;;18.68;45.01
62976;BME280;49071;0.000;0.000;2023-04-29T20:19:26;101079.19;;;18.64;44.77
